Bartow, West Virginia
Current Conditions -  °F | °C
As of 5:59 AM on Monday 20 Oct 2014 (Local Time) from KEKN Reporting Station
Haze Haze  
Wind Chill: 31°   Ceiling: 100
Heat Index: 31°   Visibility: 0.75mi
Dew Point: 31°   Wind: 0mph
Humidity: 100%   Direction: NA
Pressure: 30.09"   Gusts: NA
Location:  38.54°N, 79.78°W
Report Text: KEKN 200959Z AUTO 00000KT 3/4SM BR VV001 M01/M01 A3009 RMK AO2 T10061006 TSNO
Loading
Personal Weather Stations






























Interactive Weather Map
Tropical Storm Tracking
New forecast layout! Learn more

10-Day Weather Forecast

Advertisements
Track Severe Weather on mobile